Wetterdaten: aktuell Donnerstag, 28.05.2020 15:44
Datum Zeit Temp. A. Feuchte A. Luftdruck Regen Wind UV Solar Windben
28.05.2020 15:44 13,7 C 64 % 1026,6 hPa 0,0 l/m 2,6 km/h (1 Bft) 0,0 UV-I 561 W/m 11,3 km/h (2 Bft)
28.05.2020 14:44 12,1 C 72 % 1026,8 hPa 0,4 l/m 0,6 km/h (0 Bft) 0,0 UV-I 214 W/m 6,4 km/h (2 Bft)
28.05.2020 13:44 12,9 C 63 % 1026,9 hPa 0,0 l/m 5,9 km/h (2 Bft) 0,0 UV-I 536 W/m 11,3 km/h (2 Bft)
28.05.2020 12:44 13,1 C 68 % 1026,9 hPa 0,0 l/m 5,9 km/h (2 Bft) 0,0 UV-I 955 W/m 17,7 km/h (3 Bft)
28.05.2020 11:44 13,1 C 75 % 1027,2 hPa 0,0 l/m 0,3 km/h (0 Bft) 0,0 UV-I 739 W/m 3,2 km/h (1 Bft)
28.05.2020 10:44 12,4 C 73 % 1027,4 hPa 0,0 l/m 7,9 km/h (2 Bft) 0,0 UV-I 270 W/m 14,5 km/h (3 Bft)
28.05.2020 09:44 11,2 C 84 % 1027,4 hPa 0,0 l/m 4,5 km/h (1 Bft) 0,0 UV-I 587 W/m 9,7 km/h (2 Bft)
28.05.2020 08:44 10,7 C 89 % 1027,5 hPa 0,0 l/m 5,3 km/h (1 Bft) 0,0 UV-I 231 W/m 12,9 km/h (3 Bft)
28.05.2020 07:44 9,4 C 94 % 1027,4 hPa 0,2 l/m 5,2 km/h (1 Bft) 0,0 UV-I 108 W/m 9,7 km/h (2 Bft)
28.05.2020 06:44 9,1 C 95 % 1027,4 hPa 0,0 l/m 0,0 km/h (0 Bft) 0,0 UV-I 70 W/m 0,0 km/h (0 Bft)
28.05.2020 05:44 8,8 C 93 % 1027,1 hPa 0,8 l/m 0,4 km/h (0 Bft) 0,0 UV-I 0 W/m 3,2 km/h (1 Bft)
28.05.2020 04:44 10,0 C 92 % 1027,3 hPa 1,6 l/m 3,7 km/h (1 Bft) 0,0 UV-I 0 W/m 6,4 km/h (2 Bft)
28.05.2020 03:44 10,8 C 89 % 1027,1 hPa 0,2 l/m 0,0 km/h (0 Bft) 0,0 UV-I 0 W/m 0,0 km/h (0 Bft)
28.05.2020 02:44 11,5 C 85 % 1026,6 hPa 0,0 l/m 0,0 km/h (0 Bft) 0,0 UV-I 0 W/m 0,0 km/h (0 Bft)
28.05.2020 01:44 11,9 C 82 % 1027,1 hPa 0,0 l/m 0,0 km/h (0 Bft) 0,0 UV-I 0 W/m 0,0 km/h (0 Bft)
28.05.2020 00:44 12,1 C 82 % 1027,4 hPa 0,0 l/m 0,0 km/h (0 Bft) 0,0 UV-I 0 W/m 0,0 km/h (0 Bft)
27.05.2020 23:44 11,4 C 83 % 1027,7 hPa 0,0 l/m 0,0 km/h (0 Bft) 0,0 UV-I 0 W/m 0,0 km/h (0 Bft)
27.05.2020 22:44 11,1 C 82 % 1028,0 hPa 0,0 l/m 0,0 km/h (0 Bft) 0,0 UV-I 0 W/m 0,0 km/h (0 Bft)
27.05.2020 21:44 12,1 C 79 % 1028,0 hPa 0,0 l/m 0,0 km/h (0 Bft) 0,0 UV-I 0 W/m 0,0 km/h (0 Bft)
27.05.2020 20:44 14,8 C 71 % 1028,0 hPa 0,0 l/m 0,0 km/h (0 Bft) 0,0 UV-I 16 W/m 0,0 km/h (0 Bft)
27.05.2020 19:44 17,8 C 59 % 1028,3 hPa 0,0 l/m 3,8 km/h (1 Bft) 0,0 UV-I 103 W/m 6,4 km/h (2 Bft)
27.05.2020 18:44 18,3 C 60 % 1028,5 hPa 0,0 l/m 0,0 km/h (0 Bft) 0,0 UV-I 288 W/m 0,0 km/h (0 Bft)
27.05.2020 17:44 17,9 C 60 % 1028,8 hPa 0,0 l/m 1,1 km/h (1 Bft) 0,0 UV-I 371 W/m 3,2 km/h (1 Bft)
27.05.2020 16:44 17,8 C 58 % 1029,3 hPa 0,0 l/m 0,3 km/h (0 Bft) 0,0 UV-I 128 W/m 3,2 km/h (1 Bft)
27.05.2020 16:00 17,8 C 53 % 1029,8 hPa 0,0 l/m 5,0 km/h (1 Bft) 0,0 UV-I 777 W/m 9,7 km/h (2 Bft)
_ Min-Zeit 05:24 16:00 15:16 - 16:46 - - 16:46
Minimum _ 8,7 C 53 % 1026,5 hPa - 0,0 km/h (0 Bft) - - 0,0 km/h (0 Bft)
_ Max-Zeit 16:20 06:18 16:00 03:08 13:26 16:00 12:28 12:36
Maximum _ 18,9 C 95 % 1029,8 hPa 0,2 l/m 15,8 km/h
W-NW (3 Bft)
0,0 UV-I 1094 W/m 25,7 km/h
NW (4 Bft)
Durchschnitt _ 13,1 C 75 % 1027,8 hPa #3,2 l/m 2,5 km/h (1 Bft) 0,0 UV-I 384 W/m 5,7 km/h (1 Bft)